Ameagle, West Virginia
Current Conditions -  °F | °C
As of 8:51 PM on Friday 31 Oct 2014 (Local Time) from KBKW Reporting Station
Light Rain Light Rain  
Wind Chill: 38°   Ceiling: 600
Heat Index: 38°   Visibility: 9mi
Dew Point: 35°   Wind: 3mph
Humidity: 89%   Direction: 350°N
Pressure: 29.83"   Gusts: NA
Location:  37.95°N, 81.42°W
Report Text: KBKW 010051Z AUTO 35003KT 9SM -RA BKN006 OVC011 03/02 A2983 RMK AO2 SLP122 P0002 T00330017 TSNO
Loading
Personal Weather Stations






























Interactive Weather Map
Tropical Storm Tracking
New forecast layout! Learn more

10-Day Weather Forecast

Advertisements
Track Severe Weather on mobile